Accueil
METAR-TAF:

METAR-TAF

Aéroports :

Jammu, Inde

latitude: 32-41-21N, longitude: 74-50-15E, altitude: 314 m

METAR: absent

Heure: 08:10 (02:40 UTC)

Prévision

Le bulletin a été fait il y a 17 heures et 10 minutes, à 09:30 UTC
Prévision valable du 07 à 18 UTC au 08 à 12 UTC
Vent 2 kt de direction variable
Visibilité: 6000 m
Nuages épars à une hauteur de 2000 ft
Nuages épars à une hauteur de 9000 ft
Nuages épars à une hauteur de 25000 ft
Temporairement
du 07 à 18 UTC au 07 à 22 UTC
Vent 15 kt de nord-ouest avec des rafales jusqu'à 25 kt
Visibilité: 4000 m
Nuages épars à une hauteur de 2000 ft
Quelques nuages à une hauteur de 3000 ft
Nuages fragmentés à une hauteur de 9000 ft
orage, pluie

TAF: VIJU 070930Z 0718/0812 VRB02KT 6000 SCT020 SCT090 SCT250 TEMPO 0718/0722 32015G25KT 4000 TSRA SCT020 FEW030 TCU/CB BKN090

Observations et prévisions météorologiques de plus de 4000 aéroports (messages METAR et TAF).

Les stations disponibles sont représentées par des disques jaunes et rouges sur la carte.

Passer la souris dessus pour voir le nom de la station.

Cliquer dessus pour voir les observations et prévisions météorologiques.

Pour changer de carte: cliquez sur les boutons verts avec une croix noire pour zoomer, sur le bouton vert avec un tiret pour effectuer un zoom arrière, ou sur les flèches vertes pour les cartes adjacentes.


METAR-TAF: